Time;durP1;ratioP1;P1;durP2;ratioP2;P2;SDS_P1;SDS_P2;PMS_P1;PMS_P2;Temp;Humidity;BMP_temperature;BMP_pressure;BME280_temperature;BME280_humidity;BME280_pressure;Samples;Min_cycle;Max_cycle;Signal;HPM_P1;HPM_P2
2022/07/26 00:01:41;;;;;;;3.83;1.08;;;;;;;18.56;63.03;101231.16;5023041;28;20102;-73
2022/07/26 00:04:06;;;;;;;3.40;1.15;;;;;;;18.55;63.09;101232.09;5023575;28;20098;-73
2022/07/26 00:06:32;;;;;;;5.68;1.15;;;;;;;18.54;63.14;101231.25;5019865;28;20663;-73
2022/07/26 00:08:57;;;;;;;3.40;1.10;;;;;;;18.52;63.43;101233.13;5025733;28;20594;-73
2022/07/26 00:11:24;;;;;;;5.00;1.33;;;;;;;18.52;62.84;101232.28;5019740;28;20060;-73
2022/07/26 00:13:49;;;;;;;4.57;1.13;;;;;;;18.51;63.03;101239.31;5025088;28;20483;-73
2022/07/26 00:16:15;;;;;;;3.35;1.30;;;;;;;18.52;62.93;101237.56;5023146;28;20049;-73
2022/07/26 00:18:40;;;;;;;6.72;1.48;;;;;;;18.48;63.23;101237.72;5025893;28;20112;-73
2022/07/26 00:21:06;;;;;;;4.90;1.25;;;;;;;18.48;62.85;101232.44;5023150;28;20041;-74
2022/07/26 00:23:31;;;;;;;4.40;1.33;;;;;;;18.47;63.48;101235.13;5024726;28;20029;-74
2022/07/26 00:25:56;;;;;;;3.80;1.20;;;;;;;18.45;63.22;101235.22;5025500;28;20085;-74
2022/07/26 00:28:22;;;;;;;4.65;1.20;;;;;;;18.42;63.49;101235.38;5025460;28;20033;-75
2022/07/26 00:30:47;;;;;;;6.30;1.20;;;;;;;18.43;63.95;101233.63;5022060;28;20041;-74
2022/07/26 00:33:12;;;;;;;4.68;1.20;;;;;;;18.41;63.53;101232.84;5025140;28;20025;-74
2022/07/26 00:35:38;;;;;;;4.80;1.25;;;;;;;18.40;63.84;101233.78;5023120;28;20033;-73
2022/07/26 00:38:03;;;;;;;4.18;1.27;;;;;;;18.39;63.39;101238.19;5026978;28;20611;-74
2022/07/26 00:40:28;;;;;;;3.50;1.00;;;;;;;18.35;63.75;101242.75;5027243;28;20057;-74
2022/07/26 00:42:54;;;;;;;5.97;1.13;;;;;;;18.34;63.77;101241.06;5026073;28;20526;-74
2022/07/26 00:45:20;;;;;;;6.18;1.30;;;;;;;18.32;64.07;101242.91;5025416;28;20088;-74
2022/07/26 00:47:45;;;;;;;6.22;1.33;;;;;;;18.31;64.10;101246.47;5023526;28;20033;-74
2022/07/26 00:50:13;;;;;;;3.97;1.20;;;;;;;18.30;63.92;101250.03;5023034;28;20048;-74
2022/07/26 00:52:41;;;;;;;4.53;1.30;;;;;;;18.30;63.90;101246.56;5024779;28;20108;-74
2022/07/26 00:55:07;;;;;;;4.68;1.00;;;;;;;18.29;64.58;101240.44;5027350;28;20033;-74
2022/07/26 00:57:34;;;;;;;5.40;1.33;;;;;;;18.29;64.08;101237.81;5031164;28;20488;-74
2022/07/26 01:00:00;;;;;;;7.43;1.30;;;;;;;18.28;64.54;101241.38;5029259;28;20104;-74
2022/07/26 01:02:25;;;;;;;4.88;1.20;;;;;;;18.27;64.40;101234.44;5028203;28;20533;-74
2022/07/26 01:04:51;;;;;;;4.68;1.02;;;;;;;18.26;64.45;101232.72;5026794;28;20172;-74
2022/07/26 01:07:16;;;;;;;9.15;1.30;;;;;;;18.24;64.37;101238.97;5028694;28;20036;-74
2022/07/26 01:09:42;;;;;;;2.92;0.93;;;;;;;18.24;64.44;101231.09;5028142;28;20059;-74
2022/07/26 01:12:08;;;;;;;4.65;1.00;;;;;;;18.23;64.31;101238.16;5030586;28;20029;-74
2022/07/26 01:14:33;;;;;;;8.60;1.27;;;;;;;18.22;64.35;101231.16;5030800;28;20204;-74
2022/07/26 01:16:58;;;;;;;6.57;1.13;;;;;;;18.20;64.81;101241.78;5029845;28;20112;-74
2022/07/26 01:19:23;;;;;;;8.80;1.15;;;;;;;18.19;64.41;101237.44;5028340;28;20344;-74
2022/07/26 01:21:50;;;;;;;4.18;1.20;;;;;;;18.18;64.73;101229.63;5023746;28;20025;-74
2022/07/26 01:24:16;;;;;;;3.67;1.05;;;;;;;18.15;64.73;101224.50;5031036;28;20042;-74
2022/07/26 01:26:41;;;;;;;8.30;1.40;;;;;;;18.14;64.73;101220.16;5028251;28;20044;-74
2022/07/26 01:29:07;;;;;;;5.18;1.30;;;;;;;18.13;64.84;101218.47;5026229;28;20028;-74
2022/07/26 01:31:32;;;;;;;6.70;1.40;;;;;;;18.11;65.00;101218.56;5027376;28;20071;-74
2022/07/26 01:33:58;;;;;;;4.97;1.20;;;;;;;18.11;65.43;101228.22;5028876;28;20037;-74
2022/07/26 01:36:23;;;;;;;8.38;1.48;;;;;;;18.10;64.96;101218.66;5028398;28;20076;-74
2022/07/26 01:38:49;;;;;;;5.45;1.20;;;;;;;18.08;65.01;101220.50;5027100;28;20029;-74
2022/07/26 01:41:15;;;;;;;3.88;1.13;;;;;;;18.09;65.24;101227.47;5021686;28;20068;-74
2022/07/26 01:43:40;;;;;;;4.88;1.10;;;;;;;18.08;65.62;101231.03;5024374;28;20021;-74
2022/07/26 01:46:07;;;;;;;6.10;1.40;;;;;;;18.07;66.05;101226.69;5023384;28;20164;-74
2022/07/26 01:48:32;;;;;;;8.13;1.48;;;;;;;18.05;66.19;101229.38;5029035;28;20103;-74
2022/07/26 01:50:57;;;;;;;4.53;1.10;;;;;;;18.04;66.33;101231.19;5028385;28;20491;-74
2022/07/26 01:53:23;;;;;;;5.80;1.30;;;;;;;18.04;66.60;101228.56;5025591;28;20053;-74
2022/07/26 01:55:48;;;;;;;3.35;1.35;;;;;;;18.04;66.60;101227.69;5026088;28;20376;-74
2022/07/26 01:58:13;;;;;;;6.20;1.40;;;;;;;18.03;66.49;101232.13;5024791;28;20484;-74
2022/07/26 02:00:39;;;;;;;3.95;1.30;;;;;;;18.02;66.84;101227.78;5025456;28;20037;-74
2022/07/26 02:03:04;;;;;;;7.18;1.40;;;;;;;18.04;67.03;101228.56;5027430;28;20053;-74
2022/07/26 02:05:29;;;;;;;7.65;1.70;;;;;;;18.05;66.80;101240.78;5029887;28;20458;-74
2022/07/26 02:07:55;;;;;;;4.03;1.52;;;;;;;18.07;67.03;101245.13;5023784;28;20095;-74
2022/07/26 02:10:20;;;;;;;5.93;1.50;;;;;;;18.07;66.40;101238.06;5030270;28;20033;-74
2022/07/26 02:12:45;;;;;;;3.75;1.60;;;;;;;18.08;67.17;101245.03;5028506;28;20025;-75
2022/07/26 02:15:13;;;;;;;5.28;1.73;;;;;;;18.05;67.17;101235.53;5029987;28;20087;-75
2022/07/26 02:17:38;;;;;;;6.63;1.50;;;;;;;18.06;67.34;101241.63;5026061;28;20036;-74
2022/07/26 02:20:05;;;;;;;4.70;1.40;;;;;;;18.04;67.54;101240.84;5028725;28;20021;-74
2022/07/26 02:22:30;;;;;;;4.25;1.50;;;;;;;18.04;67.57;101243.47;5026043;28;20385;-74
2022/07/26 02:24:56;;;;;;;5.32;1.48;;;;;;;18.03;67.56;101245.28;5027255;28;20027;-74
2022/07/26 02:27:21;;;;;;;7.47;1.67;;;;;;;18.02;67.94;101240.94;5022823;28;20040;-74
2022/07/26 02:29:46;;;;;;;7.22;1.70;;;;;;;18.02;67.75;101243.56;5023076;28;20037;-74
2022/07/26 02:32:12;;;;;;;4.55;1.50;;;;;;;18.02;68.14;101246.22;5026497;28;20445;-74
2022/07/26 02:34:37;;;;;;;5.85;1.67;;;;;;;18.02;68.04;101246.22;5023774;28;20038;-74
2022/07/26 02:37:03;;;;;;;5.53;1.67;;;;;;;18.02;68.39;101240.94;5025197;28;20044;-74
2022/07/26 02:39:28;;;;;;;5.95;1.70;;;;;;;18.02;68.57;101248.84;5021886;28;20460;-73
2022/07/26 02:41:55;;;;;;;8.18;1.70;;;;;;;18.02;68.35;101246.22;5025809;28;20599;-74
2022/07/26 02:44:21;;;;;;;4.03;1.73;;;;;;;18.04;68.32;101251.38;5026139;28;20705;-74
2022/07/26 02:46:46;;;;;;;4.45;1.58;;;;;;;18.02;68.70;101253.25;5025901;28;20045;-74
2022/07/26 02:49:12;;;;;;;6.88;1.60;;;;;;;18.01;68.85;101260.28;5026659;28;20053;-74
2022/07/26 02:51:37;;;;;;;7.03;1.67;;;;;;;18.01;68.92;101265.56;5027566;28;20028;-74
2022/07/26 02:54:02;;;;;;;8.68;1.92;;;;;;;18.00;69.07;101263.03;5027326;28;20064;-74
2022/07/26 02:56:28;;;;;;;6.80;1.95;;;;;;;17.99;69.31;101256.06;5022025;28;20080;-74
2022/07/26 02:58:53;;;;;;;8.27;1.92;;;;;;;17.98;69.24;101256.97;5026748;28;20982;-74
2022/07/26 03:01:19;;;;;;;7.20;2.33;;;;;;;17.99;69.59;101267.41;5021980;28;20029;-74
2022/07/26 03:03:44;;;;;;;7.50;2.05;;;;;;;17.98;69.67;101255.19;5025205;28;20128;-74
2022/07/26 03:06:09;;;;;;;8.05;1.92;;;;;;;17.98;69.58;101263.06;5027605;28;20100;-74
2022/07/26 03:08:34;;;;;;;7.15;2.17;;;;;;;17.97;69.98;101263.13;5027090;28;20025;-73
2022/07/26 03:11:00;;;;;;;8.05;1.85;;;;;;;17.95;70.01;101265.81;5026139;28;20037;-74
2022/07/26 03:13:26;;;;;;;9.23;2.00;;;;;;;17.94;70.31;101264.13;5019937;28;20032;-74
2022/07/26 03:15:51;;;;;;;8.30;2.25;;;;;;;17.93;70.22;101278.25;5021295;28;20029;-74
2022/07/26 03:18:16;;;;;;;6.75;2.05;;;;;;;17.92;70.07;101276.53;5025612;28;20041;-74
2022/07/26 03:20:42;;;;;;;7.22;2.00;;;;;;;17.92;70.40;101278.31;5026085;28;20069;-74
2022/07/26 03:23:07;;;;;;;9.60;2.30;;;;;;;17.89;70.53;101274.88;5022716;28;20044;-74
2022/07/26 03:25:32;;;;;;;9.80;2.38;;;;;;;17.89;70.60;101287.22;5023813;28;20526;-74
2022/07/26 03:27:57;;;;;;;8.30;2.40;;;;;;;17.88;70.46;101288.97;5023579;28;20045;-73
2022/07/26 03:30:23;;;;;;;10.10;2.40;;;;;;;17.88;70.45;101290.78;5021891;28;20365;-74
2022/07/26 03:32:48;;;;;;;9.57;2.60;;;;;;;17.87;70.71;101292.53;5018669;28;20025;-74
2022/07/26 03:35:14;;;;;;;10.65;2.70;;;;;;;17.86;70.83;101284.72;5026790;28;20570;-73
2022/07/26 03:37:39;;;;;;;9.40;2.40;;;;;;;17.86;71.21;101287.34;5022430;28;20045;-74
2022/07/26 03:40:07;;;;;;;11.30;2.90;;;;;;;17.85;70.96;101291.75;5025802;28;20033;-74
2022/07/26 03:42:32;;;;;;;7.50;2.45;;;;;;;17.84;71.59;101297.09;5019555;28;20033;-74
2022/07/26 03:44:57;;;;;;;11.18;2.80;;;;;;;17.80;71.67;101292.91;5018802;28;20103;-73
2022/07/26 03:47:22;;;;;;;7.10;2.38;;;;;;;17.80;71.44;101300.81;5021837;28;20048;-74
2022/07/26 03:49:48;;;;;;;14.45;3.03;;;;;;;17.78;71.88;101295.63;5021346;28;20030;-74
2022/07/26 03:52:13;;;;;;;8.07;2.95;;;;;;;17.77;71.95;101301.81;5023557;28;20036;-74
2022/07/26 03:54:38;;;;;;;9.88;2.63;;;;;;;17.76;72.17;101297.47;5020431;28;20033;-74
2022/07/26 03:57:03;;;;;;;6.75;2.33;;;;;;;17.75;72.30;101301.91;5023861;28;20030;-74
2022/07/26 03:59:29;;;;;;;9.88;2.40;;;;;;;17.74;72.29;101305.47;5021798;28;20039;-74
2022/07/26 04:01:54;;;;;;;10.55;2.35;;;;;;;17.73;72.34;101309.03;5026516;28;20021;-74
2022/07/26 04:04:19;;;;;;;9.82;2.70;;;;;;;17.73;72.39;101309.03;5020730;28;20033;-74
2022/07/26 04:06:46;;;;;;;11.20;2.55;;;;;;;17.71;72.38;101305.59;5024701;28;20025;-74
2022/07/26 04:09:12;;;;;;;7.72;2.33;;;;;;;17.71;72.29;101305.59;5020897;28;20033;-74
2022/07/26 04:11:39;;;;;;;9.13;2.70;;;;;;;17.71;72.70;101305.59;5023128;28;20021;-74
2022/07/26 04:14:04;;;;;;;8.70;2.50;;;;;;;17.71;72.74;101305.59;5026799;28;20134;-74
2022/07/26 04:16:30;;;;;;;10.55;2.50;;;;;;;17.73;72.74;101313.41;5022523;28;21549;-74
2022/07/26 04:18:55;;;;;;;8.75;2.42;;;;;;;17.72;72.82;101315.22;5021639;28;20116;-74
2022/07/26 04:21:21;;;;;;;10.45;3.10;;;;;;;17.74;72.80;101316.00;5024023;28;20144;-74
2022/07/26 04:23:46;;;;;;;12.85;2.67;;;;;;;17.77;72.80;101314.97;5024575;28;20033;-74
2022/07/26 04:26:14;;;;;;;7.88;2.53;;;;;;;17.78;72.40;101311.41;5023546;28;20022;-74
2022/07/26 04:28:41;;;;;;;9.75;3.03;;;;;;;17.78;73.16;101316.69;5023264;28;20041;-74
2022/07/26 04:31:06;;;;;;;9.02;2.40;;;;;;;17.79;72.61;101317.53;5027160;28;20021;-74
2022/07/26 04:33:32;;;;;;;9.88;2.50;;;;;;;17.80;72.94;101319.22;5026934;28;20026;-74
2022/07/26 04:35:58;;;;;;;13.55;3.08;;;;;;;17.80;73.18;101320.09;5028143;28;20057;-74
2022/07/26 04:38:24;;;;;;;9.55;2.55;;;;;;;17.82;73.16;101322.66;5025316;28;20036;-74
2022/07/26 04:40:50;;;;;;;11.45;2.53;;;;;;;17.84;72.96;101331.31;5029934;28;20021;-74
2022/07/26 04:43:15;;;;;;;9.95;2.55;;;;;;;17.85;72.86;101333.03;5026227;28;20037;-74
2022/07/26 04:45:41;;;;;;;11.32;2.58;;;;;;;17.85;73.38;101333.03;5026900;28;20037;-74
2022/07/26 04:48:06;;;;;;;10.23;2.50;;;;;;;17.84;73.19;101332.19;5024270;28;20030;-74
2022/07/26 04:50:31;;;;;;;10.70;2.78;;;;;;;17.83;73.28;101330.47;5027807;28;20108;-74
2022/07/26 04:52:57;;;;;;;12.05;2.60;;;;;;;17.82;73.29;101327.91;5028320;28;20052;-74
2022/07/26 04:55:22;;;;;;;8.88;2.55;;;;;;;17.82;73.12;101327.91;5027016;28;20026;-74
2022/07/26 04:57:49;;;;;;;8.93;2.58;;;;;;;17.83;73.46;101330.47;5025647;28;20065;-74
2022/07/26 05:00:20;;;;;;;13.05;2.80;;;;;;;17.83;73.33;101335.75;5029012;28;20033;-74
2022/07/26 05:02:45;;;;;;;9.48;2.67;;;;;;;17.84;73.10;101333.94;5021372;28;20033;-74
2022/07/26 05:05:11;;;;;;;8.45;2.70;;;;;;;17.85;73.25;101343.56;5024545;28;20028;-74
2022/07/26 05:07:45;;;;;;;11.07;3.03;;;;;;;17.84;73.00;101344.47;5020878;28;20029;-74
2022/07/26 05:10:11;;;;;;;6.80;2.80;;;;;;;17.82;73.54;101339.31;5030175;28;20020;-74
2022/07/26 05:12:36;;;;;;;10.50;2.65;;;;;;;17.82;73.55;101343.69;5027206;28;20075;-74
2022/07/26 05:15:02;;;;;;;8.18;3.08;;;;;;;17.81;73.65;101349.88;5027221;28;20029;-74
2022/07/26 05:17:27;;;;;;;8.93;2.97;;;;;;;17.81;73.42;101347.25;5025341;28;20429;-73
2022/07/26 05:19:53;;;;;;;9.57;2.88;;;;;;;17.82;73.50;101354.22;5027358;28;20120;-73
2022/07/26 05:22:18;;;;;;;8.95;2.80;;;;;;;17.85;73.77;101348.81;5028891;28;20037;-74
2022/07/26 05:24:43;;;;;;;10.90;3.30;;;;;;;17.87;73.39;101352.22;5023460;28;20023;-73
2022/07/26 05:27:09;;;;;;;10.82;2.97;;;;;;;17.89;73.32;101356.47;5025736;28;20083;-74
2022/07/26 05:29:34;;;;;;;9.38;2.88;;;;;;;17.93;73.27;101367.75;5029636;28;20028;-74
2022/07/26 05:31:59;;;;;;;9.10;3.17;;;;;;;17.94;72.85;101358.88;5029259;28;20239;-74
2022/07/26 05:34:24;;;;;;;11.63;3.00;;;;;;;17.99;73.47;101366.63;5027680;28;20501;-74
2022/07/26 05:36:50;;;;;;;9.98;3.40;;;;;;;18.01;72.98;101370.03;5028323;28;20050;-73
2022/07/26 05:39:15;;;;;;;14.77;2.97;;;;;;;18.05;72.99;101364.53;5028697;28;20041;-74
2022/07/26 05:41:40;;;;;;;8.18;2.97;;;;;;;18.10;73.14;101364.31;5027903;28;20033;-74
2022/07/26 05:44:06;;;;;;;8.15;3.13;;;;;;;18.14;72.32;101370.25;5031349;28;20049;-74
2022/07/26 05:46:31;;;;;;;7.82;2.90;;;;;;;18.20;72.52;101372.59;5030603;28;20017;-73
2022/07/26 05:48:56;;;;;;;6.28;2.75;;;;;;;18.22;72.74;101377.78;5028865;28;20033;-73
2022/07/26 05:51:22;;;;;;;13.35;3.33;;;;;;;18.23;72.11;101367.19;5029626;28;20072;-74
2022/07/26 05:53:47;;;;;;;9.30;3.15;;;;;;;18.28;71.68;101377.50;5032190;28;20538;-74
2022/07/26 05:56:12;;;;;;;8.32;3.10;;;;;;;18.32;71.90;101379.88;5032115;28;20064;-73
2022/07/26 05:58:37;;;;;;;10.27;3.53;;;;;;;18.33;72.18;101372.84;5030309;28;20017;-74
2022/07/26 06:01:03;;;;;;;11.55;3.50;;;;;;;18.37;72.04;101384.09;5030296;28;20025;-73
2022/07/26 06:03:28;;;;;;;7.45;3.25;;;;;;;18.38;71.60;101381.34;5032478;28;20025;-73
2022/07/26 06:05:56;;;;;;;11.65;3.33;;;;;;;18.40;72.27;101389.19;5029009;28;20048;-73
2022/07/26 06:08:22;;;;;;;10.73;3.40;;;;;;;18.43;71.46;101386.41;5032041;28;20021;-74
2022/07/26 06:10:48;;;;;;;10.35;3.22;;;;;;;18.46;71.54;101391.50;5030356;28;20128;-74
2022/07/26 06:13:14;;;;;;;7.50;3.10;;;;;;;18.47;70.87;101387.94;5026670;28;20116;-74
2022/07/26 06:15:40;;;;;;;9.50;3.30;;;;;;;18.50;71.45;101391.31;5029142;28;20188;-73
2022/07/26 06:18:05;;;;;;;9.43;3.25;;;;;;;18.55;71.23;101390.19;5031069;28;20025;-74
2022/07/26 06:20:31;;;;;;;8.93;3.13;;;;;;;18.59;70.62;101394.38;5030430;28;20499;-74
2022/07/26 06:22:57;;;;;;;9.35;3.28;;;;;;;18.62;70.12;101391.59;5031630;28;20077;-73
2022/07/26 06:25:23;;;;;;;7.07;2.85;;;;;;;18.65;70.03;101394.91;5029206;28;20495;-74
2022/07/26 06:27:49;;;;;;;7.97;2.63;;;;;;;18.68;69.13;101403.59;5025828;28;20025;-74
2022/07/26 06:30:14;;;;;;;5.40;2.90;;;;;;;18.69;69.40;101400.91;5028770;28;20040;-73
2022/07/26 06:32:43;;;;;;;6.65;2.35;;;;;;;18.69;68.87;101395.63;5028141;28;20021;-73
2022/07/26 06:35:08;;;;;;;6.63;2.75;;;;;;;18.69;69.37;101400.91;5027051;28;20063;-73
2022/07/26 06:37:36;;;;;;;6.30;2.95;;;;;;;18.70;68.41;101399.09;5031010;28;20080;-73
2022/07/26 06:40:01;;;;;;;6.57;2.72;;;;;;;18.70;68.55;101399.09;5030514;28;20021;-73
2022/07/26 06:42:26;;;;;;;6.97;3.28;;;;;;;18.76;68.66;101398.81;5032513;28;20399;-73
2022/07/26 06:44:51;;;;;;;9.68;3.83;;;;;;;18.76;68.17;101409.34;5029745;28;20033;-74
2022/07/26 06:47:17;;;;;;;8.93;3.70;;;;;;;18.78;68.25;101410.13;5031223;28;20025;-74
2022/07/26 06:49:43;;;;;;;8.77;3.35;;;;;;;18.81;68.81;101412.56;5030281;28;20087;-73
2022/07/26 06:52:08;;;;;;;6.97;3.50;;;;;;;18.83;68.17;101408.09;5028536;28;20032;-73
2022/07/26 06:54:34;;;;;;;7.15;3.50;;;;;;;18.90;69.01;101422.66;5030819;28;20029;-74
2022/07/26 06:56:59;;;;;;;7.70;3.38;;;;;;;18.99;68.09;101409.94;5028692;28;20523;-74
2022/07/26 06:59:25;;;;;;;7.55;3.33;;;;;;;19.05;67.23;101414.91;5031242;28;20072;-74
2022/07/26 07:01:50;;;;;;;9.60;4.18;;;;;;;19.13;66.32;101419.78;5028971;28;20127;-73
2022/07/26 07:04:16;;;;;;;8.18;3.65;;;;;;;19.19;66.70;101422.13;5031917;28;20064;-74
2022/07/26 07:06:41;;;;;;;9.90;3.83;;;;;;;19.30;67.20;101418.91;5032107;28;20108;-74
2022/07/26 07:09:07;;;;;;;9.48;3.92;;;;;;;19.41;66.48;101422.66;5031749;28;20021;-74
2022/07/26 07:11:33;;;;;;;8.57;3.85;;;;;;;19.46;65.17;101425.06;5029734;28;20025;-73
2022/07/26 07:13:58;;;;;;;6.88;3.65;;;;;;;19.44;65.31;101432.22;5031864;28;20421;-73
2022/07/26 07:16:23;;;;;;;8.38;3.70;;;;;;;19.40;64.63;101436.78;5031775;28;20381;-73
2022/07/26 07:18:50;;;;;;;6.97;3.90;;;;;;;19.35;64.49;101433.56;5031979;28;20024;-73
2022/07/26 07:21:15;;;;;;;7.20;3.88;;;;;;;19.33;65.08;101430.13;5030545;28;20029;-73
2022/07/26 07:23:41;;;;;;;7.80;3.60;;;;;;;19.35;65.24;101432.69;5031893;28;20120;-73
2022/07/26 07:26:06;;;;;;;9.88;3.67;;;;;;;19.37;65.13;101436.09;5031481;28;20400;-73
2022/07/26 07:28:32;;;;;;;7.68;3.40;;;;;;;19.36;65.18;101434.38;5030810;28;20022;-74
2022/07/26 07:30:58;;;;;;;9.93;3.15;;;;;;;19.40;65.72;101441.22;5030482;28;20087;-73
2022/07/26 07:33:23;;;;;;;10.93;2.90;;;;;;;19.44;64.83;101437.47;5031872;28;20033;-74
2022/07/26 07:35:50;;;;;;;5.15;2.30;;;;;;;19.49;64.78;101432.78;5029780;28;20079;-73
2022/07/26 07:38:15;;;;;;;8.23;2.35;;;;;;;19.51;63.89;101443.28;5028512;28;20507;-74
2022/07/26 07:40:40;;;;;;;6.20;2.30;;;;;;;19.47;65.14;101436.44;5030110;28;20026;-74
2022/07/26 07:43:05;;;;;;;7.15;2.42;;;;;;;19.53;65.35;101444.88;5031551;28;20427;-74
2022/07/26 07:45:31;;;;;;;8.95;2.38;;;;;;;19.62;64.48;101437.41;5030921;28;20021;-74
2022/07/26 07:47:56;;;;;;;5.90;2.40;;;;;;;19.68;64.00;101450.25;5028655;28;20048;-74
2022/07/26 07:50:21;;;;;;;7.50;2.10;;;;;;;19.76;63.36;101442.78;5028876;28;20464;-73
2022/07/26 07:52:47;;;;;;;6.90;2.05;;;;;;;19.83;63.35;101433.56;5031420;28;20526;-73
2022/07/26 07:55:12;;;;;;;6.03;2.30;;;;;;;19.89;62.92;101436.84;5028831;28;20029;-73
2022/07/26 07:57:37;;;;;;;5.15;2.03;;;;;;;19.84;62.26;101447.66;5030426;28;21875;-74
2022/07/26 08:00:04;;;;;;;4.63;2.17;;;;;;;19.70;62.89;101453.69;5030925;28;20043;-74
2022/07/26 08:02:29;;;;;;;6.68;1.90;;;;;;;19.54;63.17;101462.44;5029232;28;20403;-74
2022/07/26 08:04:55;;;;;;;5.68;2.58;;;;;;;19.38;65.30;101478.25;5029715;28;20021;-74
2022/07/26 08:07:20;;;;;;;5.38;1.90;;;;;;;19.08;66.49;101468.34;5031794;28;20044;-74
2022/07/26 08:09:46;;;;;;;4.32;1.65;;;;;;;18.84;68.77;101475.69;5031643;28;20033;-74
2022/07/26 08:12:11;;;;;;;3.17;1.50;;;;;;;18.70;69.82;101479.03;5029623;28;20052;-74
2022/07/26 08:14:36;;;;;;;3.15;1.40;;;;;;;18.59;70.03;101492.75;5030301;28;20475;-74
2022/07/26 08:17:02;;;;;;;2.50;1.08;;;;;;;18.52;68.95;101491.34;5029493;28;20048;-74
2022/07/26 08:19:27;;;;;;;2.13;0.70;;;;;;;18.47;69.64;101488.06;5030732;28;20029;-73
2022/07/26 08:21:52;;;;;;;2.38;0.70;;;;;;;18.43;69.74;101494.44;5030475;28;20074;-74
2022/07/26 08:24:19;;;;;;;1.13;0.50;;;;;;;18.40;70.07;101505.94;5029107;28;20054;-74
2022/07/26 08:26:44;;;;;;;1.02;0.50;;;;;;;18.38;71.45;101499.91;5030781;28;20027;-73
2022/07/26 08:29:09;;;;;;;1.75;0.55;;;;;;;18.42;70.39;101500.63;5028693;28;20047;-74
2022/07/26 08:31:35;;;;;;;1.38;0.57;;;;;;;18.46;70.04;101503.03;5030047;28;20052;-74
2022/07/26 08:34:00;;;;;;;1.05;0.50;;;;;;;18.55;70.45;101508.75;5030789;28;20087;-73
2022/07/26 08:36:25;;;;;;;1.45;0.60;;;;;;;18.60;69.94;101507.63;5030051;28;20492;-74
2022/07/26 08:38:51;;;;;;;1.63;0.57;;;;;;;18.64;71.36;101509.16;5029359;28;20029;-74
2022/07/26 08:41:17;;;;;;;1.60;0.60;;;;;;;18.72;70.80;101505.31;5030607;28;20025;-74
2022/07/26 08:43:42;;;;;;;1.20;0.63;;;;;;;18.80;70.27;101505.78;5028274;28;20456;-74
2022/07/26 08:46:07;;;;;;;1.23;0.57;;;;;;;18.80;68.15;101505.78;5029313;28;20029;-74
2022/07/26 08:48:33;;;;;;;1.10;0.50;;;;;;;18.84;69.94;101506.50;5030316;28;20025;-74
2022/07/26 08:50:59;;;;;;;0.73;0.40;;;;;;;18.86;68.93;101516.03;5030250;28;20021;-74
2022/07/26 08:53:28;;;;;;;1.05;0.40;;;;;;;18.86;69.04;101520.44;5029596;28;20029;-74
2022/07/26 08:55:56;;;;;;;0.65;0.40;;;;;;;18.84;70.08;101527.59;5030229;28;20021;-74
2022/07/26 08:58:21;;;;;;;1.05;0.43;;;;;;;18.84;68.58;101528.41;5030661;28;20468;-74
2022/07/26 09:01:01;;;;;;;1.13;0.50;;;;;;;18.84;69.63;101528.41;5029908;28;20022;-74
2022/07/26 09:03:26;;;;;;;2.00;0.57;;;;;;;18.86;68.24;101531.84;5026499;28;20068;-74
2022/07/26 09:05:52;;;;;;;0.95;0.60;;;;;;;18.85;68.41;101532.75;5027611;28;20083;-74
2022/07/26 09:08:27;;;;;;;1.67;0.50;;;;;;;18.93;68.38;101538.53;5026775;28;20033;-74
2022/07/26 09:10:52;;;;;;;2.10;0.70;;;;;;;18.93;69.15;101532.38;5028601;28;20488;-74
2022/07/26 09:13:19;;;;;;;1.88;0.70;;;;;;;18.98;68.12;101532.19;5028643;28;20072;-74
2022/07/26 09:15:44;;;;;;;2.88;0.82;;;;;;;19.08;68.43;101526.38;5030644;28;20033;-74
2022/07/26 09:18:27;;;;;;;3.60;0.82;;;;;;;19.24;68.28;101536.13;5031776;28;20170;-74
2022/07/26 09:20:52;;;;;;;3.53;0.90;;;;;;;19.33;66.47;101540.06;5031893;28;20033;-73
2022/07/26 09:23:18;;;;;;;4.05;0.98;;;;;;;19.29;66.64;101549.09;5032499;28;20033;-74
2022/07/26 09:25:45;;;;;;;2.33;1.10;;;;;;;19.27;66.94;101546.53;5031802;28;20025;-74
2022/07/26 09:28:23;;;;;;;2.92;0.93;;;;;;;19.31;66.86;101547.22;5030414;28;20030;-74
2022/07/26 09:31:07;;;;;;;2.38;1.00;;;;;;;19.32;67.55;101554.19;5033433;28;20025;-74
2022/07/26 09:33:47;;;;;;;2.80;0.90;;;;;;;19.30;67.03;101558.72;5030337;28;20017;-74
2022/07/26 09:36:15;;;;;;;1.63;0.90;;;;;;;19.31;68.09;101563.91;5033750;28;20037;-74
2022/07/26 09:38:41;;;;;;;1.42;0.88;;;;;;;19.37;67.36;101560.09;5031803;28;20053;-74
2022/07/26 09:41:36;;;;;;;4.13;1.00;;;;;;;19.48;65.88;101556.91;5034529;28;20048;-73
2022/07/26 09:44:04;;;;;;;2.08;0.70;;;;;;;19.53;66.34;101563.66;5016375;28;20080;-73
2022/07/26 09:46:31;;;;;;;2.97;0.77;;;;;;;19.70;65.59;101561.91;5032691;28;20021;-74
2022/07/26 09:49:14;;;;;;;1.30;0.70;;;;;;;19.84;63.55;101562.03;5032487;28;20112;-73
2022/07/26 09:51:41;;;;;;;1.92;0.70;;;;;;;19.91;64.49;101569.66;5029574;28;20082;-74
2022/07/26 09:54:15;;;;;;;3.15;0.80;;;;;;;19.88;64.12;101567.19;5032578;28;20040;-73
2022/07/26 09:56:51;;;;;;;1.98;0.77;;;;;;;19.85;64.25;101569.00;5031124;28;20443;-73
2022/07/26 09:59:18;;;;;;;2.83;0.95;;;;;;;19.71;64.32;101582.09;5031461;28;20029;-74
2022/07/26 10:01:44;;;;;;;2.78;0.90;;;;;;;19.58;64.91;101586.31;5036293;28;20110;-74
2022/07/26 10:04:11;;;;;;;2.08;1.00;;;;;;;19.54;67.05;101586.47;5036497;28;20113;-73
2022/07/26 10:06:36;;;;;;;4.32;1.25;;;;;;;19.56;66.10;101584.63;5031963;28;20093;-74
2022/07/26 10:09:03;;;;;;;3.90;1.10;;;;;;;19.63;66.90;101577.22;5029253;28;20041;-75
2022/07/26 10:11:35;;;;;;;1.67;0.98;;;;;;;19.71;65.51;101579.47;5025786;28;20043;-74
2022/07/26 10:14:29;;;;;;;2.85;1.13;;;;;;;19.78;65.23;101580.84;5029695;28;20025;-75
2022/07/26 10:16:55;;;;;;;2.00;0.80;;;;;;;19.79;63.47;101577.28;5030591;28;20123;-74
2022/07/26 10:19:40;;;;;;;1.70;0.90;;;;;;;19.91;63.93;101581.06;5033868;28;20160;-73
2022/07/26 10:22:40;;;;;;;2.25;0.88;;;;;;;20.00;62.59;101577.94;5033903;28;20060;-74
2022/07/26 10:25:32;;;;;;;1.65;0.80;;;;;;;20.22;63.28;101570.63;5034256;28;20025;-74
2022/07/26 10:27:57;;;;;;;1.73;1.00;;;;;;;20.32;61.25;101585.91;5007326;28;20069;-75
2022/07/26 10:30:25;;;;;;;1.90;1.10;;;;;;;20.42;60.67;101582.72;5033691;28;20049;-74
2022/07/26 10:32:53;;;;;;;2.70;1.00;;;;;;;20.47;61.56;101583.34;5031458;28;20030;-75
2022/07/26 10:35:41;;;;;;;2.33;1.00;;;;;;;20.59;61.69;101581.78;5030171;28;20040;-74
2022/07/26 10:38:06;;;;;;;1.10;1.00;;;;;;;20.69;59.11;101595.34;5029862;28;20049;-75
2022/07/26 10:40:32;;;;;;;1.90;0.65;;;;;;;20.74;57.84;101583.56;5030736;28;20384;-75
2022/07/26 10:43:12;;;;;;;1.77;0.70;;;;;;;20.82;59.56;101583.16;5033420;28;20083;-75
2022/07/26 10:45:37;;;;;;;1.10;0.63;;;;;;;20.95;59.09;101579.81;5032571;28;20028;-75
2022/07/26 10:48:23;;;;;;;0.90;0.70;;;;;;;21.01;59.26;101582.94;5031631;28;20029;-74
2022/07/26 10:50:51;;;;;;;1.38;0.60;;;;;;;21.00;55.65;101589.19;5031975;28;20038;-75
2022/07/26 10:53:24;;;;;;;1.65;0.40;;;;;;;21.04;58.11;101587.22;5031978;28;20108;-75
2022/07/26 10:55:56;;;;;;;1.85;0.50;;;;;;;21.13;55.78;101588.47;5032188;28;20033;-75
2022/07/26 10:58:24;;;;;;;1.67;0.60;;;;;;;21.20;57.19;101590.66;5032400;28;20032;-75
2022/07/26 11:01:03;;;;;;;1.10;0.50;;;;;;;21.25;57.99;101595.69;5036336;28;20026;-75
2022/07/26 11:03:36;;;;;;;2.03;0.50;;;;;;;21.21;56.97;101596.78;5032836;28;20057;-75
2022/07/26 11:06:08;;;;;;;2.15;0.40;;;;;;;21.20;56.25;101585.38;5033221;28;20033;-74
2022/07/26 11:08:33;;;;;;;3.00;0.60;;;;;;;21.16;55.69;101593.59;5031943;28;20029;-75
2022/07/26 11:10:59;;;;;;;1.15;0.50;;;;;;;21.10;55.79;101604.53;5032236;28;20036;-74
2022/07/26 11:13:24;;;;;;;1.98;0.50;;;;;;;21.03;56.90;101596.09;5033291;28;20056;-76
2022/07/26 11:16:01;;;;;;;1.05;0.47;;;;;;;20.93;55.51;101609.00;5032367;28;20025;-75
2022/07/26 11:18:31;;;;;;;1.05;0.55;;;;;;;20.77;56.68;101617.81;5030534;28;20032;-74
2022/07/26 11:21:06;;;;;;;1.25;0.60;;;;;;;20.66;57.71;101616.66;5031107;28;20051;-74
2022/07/26 11:23:34;;;;;;;1.90;0.40;;;;;;;20.52;58.06;101625.38;5029053;28;20036;-74